Aviation Digital Data Service (ADDS)

Output produced by METARs form (2026 UTC 20 August 2019)
found at http://www.aviationweather.gov/metar/data/
 
Forecast for: WARR (JUANDA , ID)
Text: TAF WARR 201700Z 2018/2118 26005KT 6000 FEW020
Forecast period: 1800 UTC 20 August 2019 to 0000 UTC 21 August 2019
Forecast type: FROM: standard forecast or significant change
Winds: from the W (260 degrees) at 6 MPH (5 knots; 2.6 m/s)
Visibility: 4 miles (6 km)
Ceiling: at least 12,000 feet AGL
Clouds: few clouds at 2000 feet AGL
Weather: no significant weather forecast for this period
Text: TEMPO 2021/2100 4000 HZ
Forecast period: 2100 UTC 20 August 2019 to 0000 UTC 21 August 2019
Forecast type: TEMPORARY: The following changes expected for less than half the time period
Visibility: 2.49 miles (4.01 km)
Ceiling: unknown
Clouds: missing
Weather: HZ  (haze)
Text: BECMG 2100/2102 10012KT 9999
Forecast period: 0000 to 1800 UTC 21 August 2019
Forecast type: BECOMING: Conditions expected to become as follows by 0200 UTC 21 August 2019
Winds: from the E (100 degrees) at 14 MPH (12 knots; 6.2 m/s)
Visibility: 6 or more miles 10+ km)
Ceiling: at least 12,000 feet AGL
Clouds: few clouds at 2000 feet AGL
Weather: no significant weather forecast for this period